Lubbock/Reese AFB, Texas
Current Conditions -  °F | °C
As of 5:53 AM on Friday 19 Dec 2014 (Local Time) from KLBB Reporting Station
Overcast Overcast  
Wind Chill: 33°   Ceiling: 600
Heat Index: 38°   Visibility: 7mi
Dew Point: 37°   Wind: 6mph
Humidity: 97%   Direction: 110°ESE
Pressure: 30.1"   Gusts: NA
Location:  33.6°N, 102.07°W
Report Text: KLBB 191153Z 11005KT 7SM OVC006 03/03 A3010 RMK AO2 SLP186 BR ALQDS 60001 70001 T00330028 10039 20033 56008
Loading
Personal Weather Stations






























Interactive Weather Map New forecast layout! Learn more

10-Day Weather Forecast

Advertisements
Track Severe Weather on mobile